Stinson Beach, CA

11:33 AM PDT on July 05, 2015 (GMT -0700)
WLSB | | Change Station
CLOSE
Current Station
Personal Weather Station
Location: Stinson Beach, CA
Elevation: 7 ft
Nearby Weather Stations

Elev 7 ft 37.90 °N, 122.65 °W | Updated 7 minutes ago

Mostly Cloudy
Mostly Cloudy
63.5 °F
Feels Like 63.5 °F
N
4.2
Wind Variable Wind from South

Today
High -- | Low -- °F
--% Chance of Precip.
Yesterday
High -- | Low -- °F
Precip. -- in
5:53 AM 8:36 PM
Waning Gibbous, 83% visible
Pressure 30.00 in
Visibility 10.0 miles
Clouds Overcast 1600 ft
Dew Point 61 °F
Humidity 92%
Rainfall 0.05 in
Snow Depth Not available.
UV 3 out of 12
Pollen 3.30 out of 12
Air Quality Not available.
Flu Activity Not available.
METAR KO69 051815Z AUTO 30003KT 10SM OVC016 19/15 A3000 RMK AO1

More Conditions Fewer Conditions

Pressure 30.00 in
Visibility 10.0 miles
Clouds Overcast 1600 ft
Dew Point 61 °F
Humidity 92%
Rainfall 0.05 in
Snow Depth Not available.
UV 3 out of 12
Pollen 3.30 out of 12
Air Quality Not available.
Flu Activity Not available.
METAR KO69 051815Z AUTO 30003KT 10SM OVC016 19/15 A3000 RMK AO1

More Conditions Fewer Conditions

10-Day Weather Forecast

×

Almanac

Astronomy

Jul. 05, 2015 Rise Set
Actual Time
Civil Twilight
Nautical Twilight
Astronomical Twilight
Moon
Length of Visible Light
Length of Day
Tomorrow will be .
, % of the Moon is Illuminated

Today's Extremes

State Highs State Lows

Community

WunderPhotos

Upload Photos

1,835,345 photos uploaded!

WunderBlogs® & News

Nearby

Air Quality

  Air Quality AQ Index Pollutant
Not available.

Snow Depth

Station Depth Elevation

Earthquake Activity

City Distance Mag. Time & Date
Minimum magnitude displayed is 2.5.

Coastal Water Temperatures

Place Temperature

Stations

Nearby Weather Stations

Station Location Temp. Windchill Dew Point Humidity Wind Precip. Elev Updated Type